sensor_id;sensor_type;location;lat;lon;timestamp;P1;durP1;ratioP1;P2;durP2;ratioP2
46222;SDS011;31943;51.410;7.564;2022-08-24T00:00:22;6.50;;;2.85;;
46222;SDS011;31943;51.410;7.564;2022-08-24T00:02:47;5.30;;;3.35;;
46222;SDS011;31943;51.410;7.564;2022-08-24T00:05:15;4.88;;;3.10;;
46222;SDS011;31943;51.410;7.564;2022-08-24T00:07:41;5.68;;;2.63;;
46222;SDS011;31943;51.410;7.564;2022-08-24T00:10:08;8.63;;;3.30;;
46222;SDS011;31943;51.410;7.564;2022-08-24T00:12:35;5.30;;;3.03;;
46222;SDS011;31943;51.410;7.564;2022-08-24T00:15:00;5.05;;;2.60;;
46222;SDS011;31943;51.410;7.564;2022-08-24T00:17:26;6.43;;;2.97;;
46222;SDS011;31943;51.410;7.564;2022-08-24T00:19:52;4.07;;;2.67;;
46222;SDS011;31943;51.410;7.564;2022-08-24T00:22:19;5.10;;;3.00;;
46222;SDS011;31943;51.410;7.564;2022-08-24T00:24:45;5.78;;;3.13;;
46222;SDS011;31943;51.410;7.564;2022-08-24T00:27:10;4.85;;;2.85;;
46222;SDS011;31943;51.410;7.564;2022-08-24T00:29:36;5.88;;;3.05;;
46222;SDS011;31943;51.410;7.564;2022-08-24T00:32:01;4.00;;;2.70;;
46222;SDS011;31943;51.410;7.564;2022-08-24T00:34:27;4.95;;;3.20;;
46222;SDS011;31943;51.410;7.564;2022-08-24T00:36:53;5.50;;;3.10;;
46222;SDS011;31943;51.410;7.564;2022-08-24T00:39:20;4.70;;;2.90;;
46222;SDS011;31943;51.410;7.564;2022-08-24T00:41:47;5.63;;;2.55;;
46222;SDS011;31943;51.410;7.564;2022-08-24T00:44:14;4.60;;;3.15;;
46222;SDS011;31943;51.410;7.564;2022-08-24T00:46:42;5.97;;;2.90;;
46222;SDS011;31943;51.410;7.564;2022-08-24T00:49:17;4.13;;;2.97;;
46222;SDS011;31943;51.410;7.564;2022-08-24T00:51:50;4.90;;;2.83;;
46222;SDS011;31943;51.410;7.564;2022-08-24T00:54:22;5.00;;;2.95;;
46222;SDS011;31943;51.410;7.564;2022-08-24T00:57:04;5.90;;;3.30;;
46222;SDS011;31943;51.410;7.564;2022-08-24T00:59:33;6.38;;;3.40;;
46222;SDS011;31943;51.410;7.564;2022-08-24T01:02:04;6.43;;;3.65;;
46222;SDS011;31943;51.410;7.564;2022-08-24T01:04:33;4.68;;;2.70;;
46222;SDS011;31943;51.410;7.564;2022-08-24T01:07:03;5.05;;;3.30;;
46222;SDS011;31943;51.410;7.564;2022-08-24T01:09:30;5.20;;;3.33;;
46222;SDS011;31943;51.410;7.564;2022-08-24T01:11:56;5.57;;;3.05;;
46222;SDS011;31943;51.410;7.564;2022-08-24T01:14:22;6.03;;;3.38;;
46222;SDS011;31943;51.410;7.564;2022-08-24T01:16:48;7.35;;;2.83;;
46222;SDS011;31943;51.410;7.564;2022-08-24T01:19:16;4.22;;;3.08;;
46222;SDS011;31943;51.410;7.564;2022-08-24T01:21:53;4.68;;;3.20;;
46222;SDS011;31943;51.410;7.564;2022-08-24T01:24:31;5.55;;;2.75;;
46222;SDS011;31943;51.410;7.564;2022-08-24T01:26:59;4.05;;;3.10;;
46222;SDS011;31943;51.410;7.564;2022-08-24T01:29:26;5.40;;;3.03;;
46222;SDS011;31943;51.410;7.564;2022-08-24T01:31:55;4.70;;;3.10;;
46222;SDS011;31943;51.410;7.564;2022-08-24T01:34:20;5.25;;;3.03;;
46222;SDS011;31943;51.410;7.564;2022-08-24T01:36:47;8.27;;;3.10;;
46222;SDS011;31943;51.410;7.564;2022-08-24T01:39:14;5.30;;;2.95;;
46222;SDS011;31943;51.410;7.564;2022-08-24T01:41:44;5.45;;;2.90;;
46222;SDS011;31943;51.410;7.564;2022-08-24T01:44:10;6.13;;;3.10;;
46222;SDS011;31943;51.410;7.564;2022-08-24T01:46:36;6.55;;;3.25;;
46222;SDS011;31943;51.410;7.564;2022-08-24T01:49:01;7.57;;;3.17;;
46222;SDS011;31943;51.410;7.564;2022-08-24T01:51:28;5.65;;;3.42;;
46222;SDS011;31943;51.410;7.564;2022-08-24T01:53:55;4.18;;;3.08;;
46222;SDS011;31943;51.410;7.564;2022-08-24T01:56:20;3.92;;;3.00;;
46222;SDS011;31943;51.410;7.564;2022-08-24T01:58:47;4.30;;;2.97;;
46222;SDS011;31943;51.410;7.564;2022-08-24T02:01:13;4.20;;;3.13;;
46222;SDS011;31943;51.410;7.564;2022-08-24T02:03:40;5.03;;;2.80;;
46222;SDS011;31943;51.410;7.564;2022-08-24T02:06:06;4.80;;;2.85;;
46222;SDS011;31943;51.410;7.564;2022-08-24T02:08:32;5.20;;;3.15;;
46222;SDS011;31943;51.410;7.564;2022-08-24T02:10:57;4.00;;;2.92;;
46222;SDS011;31943;51.410;7.564;2022-08-24T02:13:23;3.33;;;2.72;;
46222;SDS011;31943;51.410;7.564;2022-08-24T02:15:50;8.07;;;3.45;;
46222;SDS011;31943;51.410;7.564;2022-08-24T02:18:16;4.53;;;3.08;;
46222;SDS011;31943;51.410;7.564;2022-08-24T02:20:41;5.38;;;3.08;;
46222;SDS011;31943;51.410;7.564;2022-08-24T02:23:08;7.18;;;3.10;;
46222;SDS011;31943;51.410;7.564;2022-08-24T02:25:34;6.30;;;3.45;;
46222;SDS011;31943;51.410;7.564;2022-08-24T02:27:59;4.82;;;3.00;;
46222;SDS011;31943;51.410;7.564;2022-08-24T02:30:26;5.32;;;3.13;;
46222;SDS011;31943;51.410;7.564;2022-08-24T02:32:55;3.75;;;3.00;;
46222;SDS011;31943;51.410;7.564;2022-08-24T02:35:22;6.35;;;3.83;;
46222;SDS011;31943;51.410;7.564;2022-08-24T02:37:48;5.65;;;3.60;;
46222;SDS011;31943;51.410;7.564;2022-08-24T02:40:13;3.70;;;3.00;;
46222;SDS011;31943;51.410;7.564;2022-08-24T02:42:39;5.32;;;3.38;;
46222;SDS011;31943;51.410;7.564;2022-08-24T02:45:06;3.95;;;3.40;;
46222;SDS011;31943;51.410;7.564;2022-08-24T02:47:33;4.22;;;3.60;;
46222;SDS011;31943;51.410;7.564;2022-08-24T02:50:01;5.30;;;3.28;;
46222;SDS011;31943;51.410;7.564;2022-08-24T02:52:27;5.97;;;3.20;;
46222;SDS011;31943;51.410;7.564;2022-08-24T02:54:53;4.68;;;3.30;;
46222;SDS011;31943;51.410;7.564;2022-08-24T02:57:19;3.70;;;2.88;;
46222;SDS011;31943;51.410;7.564;2022-08-24T02:59:44;5.35;;;3.28;;
46222;SDS011;31943;51.410;7.564;2022-08-24T03:02:10;5.75;;;3.17;;
46222;SDS011;31943;51.410;7.564;2022-08-24T03:04:36;6.28;;;3.85;;
46222;SDS011;31943;51.410;7.564;2022-08-24T03:07:03;5.75;;;3.60;;
46222;SDS011;31943;51.410;7.564;2022-08-24T03:09:29;5.50;;;3.22;;
46222;SDS011;31943;51.410;7.564;2022-08-24T03:11:55;4.53;;;3.28;;
46222;SDS011;31943;51.410;7.564;2022-08-24T03:14:20;4.57;;;3.45;;
46222;SDS011;31943;51.410;7.564;2022-08-24T03:16:46;3.40;;;2.85;;
46222;SDS011;31943;51.410;7.564;2022-08-24T03:19:12;5.10;;;3.13;;
46222;SDS011;31943;51.410;7.564;2022-08-24T03:21:38;6.63;;;3.97;;
46222;SDS011;31943;51.410;7.564;2022-08-24T03:24:06;7.90;;;3.70;;
46222;SDS011;31943;51.410;7.564;2022-08-24T03:26:33;4.45;;;3.20;;
46222;SDS011;31943;51.410;7.564;2022-08-24T03:28:59;5.95;;;3.33;;
46222;SDS011;31943;51.410;7.564;2022-08-24T03:31:25;5.45;;;2.85;;
46222;SDS011;31943;51.410;7.564;2022-08-24T03:33:51;3.70;;;3.03;;
46222;SDS011;31943;51.410;7.564;2022-08-24T03:36:16;6.20;;;3.67;;
46222;SDS011;31943;51.410;7.564;2022-08-24T03:38:42;6.10;;;3.45;;
46222;SDS011;31943;51.410;7.564;2022-08-24T03:41:10;4.07;;;3.40;;
46222;SDS011;31943;51.410;7.564;2022-08-24T03:43:36;5.18;;;3.38;;
46222;SDS011;31943;51.410;7.564;2022-08-24T03:46:03;4.88;;;3.22;;
46222;SDS011;31943;51.410;7.564;2022-08-24T03:48:30;6.40;;;3.20;;
46222;SDS011;31943;51.410;7.564;2022-08-24T03:50:56;3.85;;;3.45;;
46222;SDS011;31943;51.410;7.564;2022-08-24T03:53:23;4.53;;;3.38;;
46222;SDS011;31943;51.410;7.564;2022-08-24T03:55:48;4.53;;;3.20;;
46222;SDS011;31943;51.410;7.564;2022-08-24T03:58:17;4.93;;;3.55;;
46222;SDS011;31943;51.410;7.564;2022-08-24T04:00:43;6.00;;;3.17;;
46222;SDS011;31943;51.410;7.564;2022-08-24T04:03:10;5.93;;;3.67;;
46222;SDS011;31943;51.410;7.564;2022-08-24T04:05:36;5.30;;;3.17;;
46222;SDS011;31943;51.410;7.564;2022-08-24T04:08:03;4.25;;;3.15;;
46222;SDS011;31943;51.410;7.564;2022-08-24T04:10:31;5.85;;;2.97;;
46222;SDS011;31943;51.410;7.564;2022-08-24T04:12:57;4.10;;;3.38;;
46222;SDS011;31943;51.410;7.564;2022-08-24T04:15:24;4.32;;;3.25;;
46222;SDS011;31943;51.410;7.564;2022-08-24T04:17:50;5.20;;;3.20;;
46222;SDS011;31943;51.410;7.564;2022-08-24T04:20:15;4.68;;;3.53;;
46222;SDS011;31943;51.410;7.564;2022-08-24T04:22:41;5.30;;;3.40;;
46222;SDS011;31943;51.410;7.564;2022-08-24T04:25:07;3.50;;;2.72;;
46222;SDS011;31943;51.410;7.564;2022-08-24T04:27:34;6.18;;;3.47;;
46222;SDS011;31943;51.410;7.564;2022-08-24T04:29:59;4.10;;;3.20;;
46222;SDS011;31943;51.410;7.564;2022-08-24T04:32:27;5.43;;;3.25;;
46222;SDS011;31943;51.410;7.564;2022-08-24T04:34:53;5.40;;;3.30;;
46222;SDS011;31943;51.410;7.564;2022-08-24T04:37:18;5.95;;;3.25;;
46222;SDS011;31943;51.410;7.564;2022-08-24T04:39:44;4.80;;;3.40;;
46222;SDS011;31943;51.410;7.564;2022-08-24T04:42:09;4.63;;;2.95;;
46222;SDS011;31943;51.410;7.564;2022-08-24T04:44:35;5.25;;;3.15;;
46222;SDS011;31943;51.410;7.564;2022-08-24T04:47:00;5.00;;;3.20;;
46222;SDS011;31943;51.410;7.564;2022-08-24T04:49:28;6.43;;;3.38;;
46222;SDS011;31943;51.410;7.564;2022-08-24T04:51:53;5.55;;;3.25;;
46222;SDS011;31943;51.410;7.564;2022-08-24T04:54:19;4.22;;;2.97;;
46222;SDS011;31943;51.410;7.564;2022-08-24T04:56:46;5.22;;;3.08;;
46222;SDS011;31943;51.410;7.564;2022-08-24T04:59:12;5.20;;;3.22;;
46222;SDS011;31943;51.410;7.564;2022-08-24T05:01:40;4.18;;;3.08;;
46222;SDS011;31943;51.410;7.564;2022-08-24T05:04:06;5.93;;;3.10;;
46222;SDS011;31943;51.410;7.564;2022-08-24T05:06:34;5.15;;;3.17;;
46222;SDS011;31943;51.410;7.564;2022-08-24T05:09:00;6.22;;;3.60;;
46222;SDS011;31943;51.410;7.564;2022-08-24T05:11:26;4.90;;;3.28;;
46222;SDS011;31943;51.410;7.564;2022-08-24T05:13:55;6.10;;;2.85;;
46222;SDS011;31943;51.410;7.564;2022-08-24T05:16:22;6.55;;;3.47;;
46222;SDS011;31943;51.410;7.564;2022-08-24T05:18:49;4.97;;;3.00;;
46222;SDS011;31943;51.410;7.564;2022-08-24T05:21:16;5.85;;;2.92;;
46222;SDS011;31943;51.410;7.564;2022-08-24T05:23:44;4.30;;;3.13;;
46222;SDS011;31943;51.410;7.564;2022-08-24T05:26:11;4.22;;;3.10;;
46222;SDS011;31943;51.410;7.564;2022-08-24T05:28:39;4.93;;;3.30;;
46222;SDS011;31943;51.410;7.564;2022-08-24T05:31:06;4.72;;;3.22;;
46222;SDS011;31943;51.410;7.564;2022-08-24T05:33:35;4.13;;;3.47;;
46222;SDS011;31943;51.410;7.564;2022-08-24T05:36:00;5.07;;;3.40;;
46222;SDS011;31943;51.410;7.564;2022-08-24T05:38:26;4.07;;;3.28;;
46222;SDS011;31943;51.410;7.564;2022-08-24T05:40:54;3.92;;;3.00;;
46222;SDS011;31943;51.410;7.564;2022-08-24T05:43:19;5.97;;;3.20;;
46222;SDS011;31943;51.410;7.564;2022-08-24T05:45:45;4.88;;;3.63;;
46222;SDS011;31943;51.410;7.564;2022-08-24T05:48:11;5.13;;;4.05;;
46222;SDS011;31943;51.410;7.564;2022-08-24T05:50:36;6.35;;;3.80;;
46222;SDS011;31943;51.410;7.564;2022-08-24T05:53:02;4.72;;;3.58;;
46222;SDS011;31943;51.410;7.564;2022-08-24T05:55:28;6.30;;;3.83;;
46222;SDS011;31943;51.410;7.564;2022-08-24T05:57:55;4.65;;;4.00;;
46222;SDS011;31943;51.410;7.564;2022-08-24T06:00:21;6.45;;;5.00;;
46222;SDS011;31943;51.410;7.564;2022-08-24T06:02:47;6.32;;;4.30;;
46222;SDS011;31943;51.410;7.564;2022-08-24T06:05:12;5.88;;;3.78;;
46222;SDS011;31943;51.410;7.564;2022-08-24T06:07:41;6.10;;;4.28;;
46222;SDS011;31943;51.410;7.564;2022-08-24T06:10:07;5.95;;;4.43;;
46222;SDS011;31943;51.410;7.564;2022-08-24T06:12:33;6.10;;;5.07;;
46222;SDS011;31943;51.410;7.564;2022-08-24T06:15:00;9.95;;;5.47;;
46222;SDS011;31943;51.410;7.564;2022-08-24T06:17:26;8.98;;;5.72;;
46222;SDS011;31943;51.410;7.564;2022-08-24T06:19:52;7.90;;;5.03;;
46222;SDS011;31943;51.410;7.564;2022-08-24T06:22:17;9.15;;;5.75;;
46222;SDS011;31943;51.410;7.564;2022-08-24T06:24:43;5.72;;;4.53;;
46222;SDS011;31943;51.410;7.564;2022-08-24T06:27:09;8.07;;;5.20;;
46222;SDS011;31943;51.410;7.564;2022-08-24T06:29:35;8.15;;;4.75;;
46222;SDS011;31943;51.410;7.564;2022-08-24T06:32:02;5.75;;;4.82;;
46222;SDS011;31943;51.410;7.564;2022-08-24T06:34:28;8.98;;;5.43;;
46222;SDS011;31943;51.410;7.564;2022-08-24T06:36:53;6.30;;;4.90;;
46222;SDS011;31943;51.410;7.564;2022-08-24T06:39:19;6.45;;;4.95;;
46222;SDS011;31943;51.410;7.564;2022-08-24T06:41:46;7.93;;;5.03;;
46222;SDS011;31943;51.410;7.564;2022-08-24T06:44:11;8.13;;;5.80;;
46222;SDS011;31943;51.410;7.564;2022-08-24T06:46:37;7.28;;;5.50;;
46222;SDS011;31943;51.410;7.564;2022-08-24T06:49:05;8.75;;;5.70;;
46222;SDS011;31943;51.410;7.564;2022-08-24T06:51:31;5.55;;;4.90;;
46222;SDS011;31943;51.410;7.564;2022-08-24T06:53:56;9.57;;;5.30;;
46222;SDS011;31943;51.410;7.564;2022-08-24T06:56:22;7.88;;;4.70;;
46222;SDS011;31943;51.410;7.564;2022-08-24T06:58:48;6.05;;;4.72;;
46222;SDS011;31943;51.410;7.564;2022-08-24T07:01:15;7.03;;;4.93;;
46222;SDS011;31943;51.410;7.564;2022-08-24T07:03:42;7.63;;;4.55;;
46222;SDS011;31943;51.410;7.564;2022-08-24T07:06:11;6.45;;;4.35;;
46222;SDS011;31943;51.410;7.564;2022-08-24T07:08:38;9.15;;;4.00;;
46222;SDS011;31943;51.410;7.564;2022-08-24T07:11:05;5.80;;;3.53;;
46222;SDS011;31943;51.410;7.564;2022-08-24T07:13:30;6.28;;;3.30;;
46222;SDS011;31943;51.410;7.564;2022-08-24T07:15:57;6.22;;;3.53;;
46222;SDS011;31943;51.410;7.564;2022-08-24T07:18:23;4.80;;;3.30;;
46222;SDS011;31943;51.410;7.564;2022-08-24T07:20:49;4.55;;;3.55;;
46222;SDS011;31943;51.410;7.564;2022-08-24T07:23:18;5.07;;;3.53;;
46222;SDS011;31943;51.410;7.564;2022-08-24T07:25:44;7.07;;;3.30;;
46222;SDS011;31943;51.410;7.564;2022-08-24T07:28:11;6.05;;;3.33;;
46222;SDS011;31943;51.410;7.564;2022-08-24T07:30:38;8.02;;;3.80;;
46222;SDS011;31943;51.410;7.564;2022-08-24T07:33:04;6.90;;;3.17;;
46222;SDS011;31943;51.410;7.564;2022-08-24T07:35:31;6.05;;;4.20;;
46222;SDS011;31943;51.410;7.564;2022-08-24T07:37:57;6.82;;;3.50;;
46222;SDS011;31943;51.410;7.564;2022-08-24T07:40:26;6.03;;;3.75;;
46222;SDS011;31943;51.410;7.564;2022-08-24T07:42:53;5.72;;;3.00;;
46222;SDS011;31943;51.410;7.564;2022-08-24T07:45:20;9.27;;;4.22;;
46222;SDS011;31943;51.410;7.564;2022-08-24T07:47:46;5.35;;;3.17;;
46222;SDS011;31943;51.410;7.564;2022-08-24T07:50:12;9.32;;;2.97;;
46222;SDS011;31943;51.410;7.564;2022-08-24T07:52:39;4.78;;;2.50;;
46222;SDS011;31943;51.410;7.564;2022-08-24T07:55:05;6.80;;;2.50;;
46222;SDS011;31943;51.410;7.564;2022-08-24T07:57:34;6.63;;;2.72;;
46222;SDS011;31943;51.410;7.564;2022-08-24T07:59:59;6.32;;;2.72;;
46222;SDS011;31943;51.410;7.564;2022-08-24T08:02:25;4.82;;;2.95;;
46222;SDS011;31943;51.410;7.564;2022-08-24T08:04:53;4.97;;;2.80;;
46222;SDS011;31943;51.410;7.564;2022-08-24T08:07:19;3.83;;;2.42;;
46222;SDS011;31943;51.410;7.564;2022-08-24T08:09:44;5.40;;;2.20;;
46222;SDS011;31943;51.410;7.564;2022-08-24T08:12:10;6.80;;;2.45;;
46222;SDS011;31943;51.410;7.564;2022-08-24T08:14:37;5.40;;;2.33;;
46222;SDS011;31943;51.410;7.564;2022-08-24T08:17:03;4.28;;;2.15;;
46222;SDS011;31943;51.410;7.564;2022-08-24T08:19:29;5.15;;;2.20;;
46222;SDS011;31943;51.410;7.564;2022-08-24T08:21:55;4.90;;;2.38;;
46222;SDS011;31943;51.410;7.564;2022-08-24T08:24:20;6.75;;;2.90;;
46222;SDS011;31943;51.410;7.564;2022-08-24T08:26:47;5.28;;;2.70;;
46222;SDS011;31943;51.410;7.564;2022-08-24T08:29:13;6.00;;;2.90;;
46222;SDS011;31943;51.410;7.564;2022-08-24T08:31:41;3.83;;;2.10;;
46222;SDS011;31943;51.410;7.564;2022-08-24T08:34:07;6.18;;;2.08;;
46222;SDS011;31943;51.410;7.564;2022-08-24T08:36:33;6.07;;;2.47;;
46222;SDS011;31943;51.410;7.564;2022-08-24T08:39:01;5.85;;;2.63;;
46222;SDS011;31943;51.410;7.564;2022-08-24T08:44:54;4.00;;;2.20;;
46222;SDS011;31943;51.410;7.564;2022-08-24T08:50:54;6.18;;;2.15;;
46222;SDS011;31943;51.410;7.564;2022-08-24T08:56:34;5.63;;;2.15;;
46222;SDS011;31943;51.410;7.564;2022-08-24T08:59:05;4.40;;;2.03;;
46222;SDS011;31943;51.410;7.564;2022-08-24T09:01:44;6.25;;;1.77;;
46222;SDS011;31943;51.410;7.564;2022-08-24T09:04:23;3.90;;;1.90;;
46222;SDS011;31943;51.410;7.564;2022-08-24T09:07:19;5.95;;;2.30;;
46222;SDS011;31943;51.410;7.564;2022-08-24T09:10:05;3.15;;;2.00;;
46222;SDS011;31943;51.410;7.564;2022-08-24T09:12:52;4.95;;;2.20;;
46222;SDS011;31943;51.410;7.564;2022-08-24T09:15:31;3.70;;;1.77;;
46222;SDS011;31943;51.410;7.564;2022-08-24T09:18:16;3.67;;;1.75;;
46222;SDS011;31943;51.410;7.564;2022-08-24T09:21:02;3.95;;;1.95;;
46222;SDS011;31943;51.410;7.564;2022-08-24T09:23:45;3.92;;;1.83;;
46222;SDS011;31943;51.410;7.564;2022-08-24T09:26:19;3.08;;;1.73;;
46222;SDS011;31943;51.410;7.564;2022-08-24T09:28:51;4.25;;;1.75;;
46222;SDS011;31943;51.410;7.564;2022-08-24T09:31:27;2.90;;;1.75;;
46222;SDS011;31943;51.410;7.564;2022-08-24T09:34:15;3.92;;;1.55;;
46222;SDS011;31943;51.410;7.564;2022-08-24T09:36:52;7.55;;;1.85;;
46222;SDS011;31943;51.410;7.564;2022-08-24T09:39:31;4.40;;;1.63;;
46222;SDS011;31943;51.410;7.564;2022-08-24T09:51:22;5.18;;;1.50;;
46222;SDS011;31943;51.410;7.564;2022-08-24T09:57:46;4.03;;;2.10;;
46222;SDS011;31943;51.410;7.564;2022-08-24T10:00:20;7.28;;;2.30;;
46222;SDS011;31943;51.410;7.564;2022-08-24T10:02:57;5.28;;;1.95;;
46222;SDS011;31943;51.410;7.564;2022-08-24T10:05:31;3.97;;;1.80;;
46222;SDS011;31943;51.410;7.564;2022-08-24T10:08:08;5.63;;;1.90;;
46222;SDS011;31943;51.410;7.564;2022-08-24T10:10:46;3.67;;;1.48;;
46222;SDS011;31943;51.410;7.564;2022-08-24T10:13:22;5.75;;;1.52;;
46222;SDS011;31943;51.410;7.564;2022-08-24T10:15:59;7.25;;;1.90;;
46222;SDS011;31943;51.410;7.564;2022-08-24T10:18:40;3.20;;;1.70;;
46222;SDS011;31943;51.410;7.564;2022-08-24T10:21:19;2.95;;;1.65;;
46222;SDS011;31943;51.410;7.564;2022-08-24T10:24:06;4.50;;;1.67;;
46222;SDS011;31943;51.410;7.564;2022-08-24T10:26:49;4.97;;;1.88;;
46222;SDS011;31943;51.410;7.564;2022-08-24T10:29:35;4.63;;;1.75;;
46222;SDS011;31943;51.410;7.564;2022-08-24T10:32:19;4.72;;;2.25;;
46222;SDS011;31943;51.410;7.564;2022-08-24T10:35:01;4.82;;;2.15;;
46222;SDS011;31943;51.410;7.564;2022-08-24T10:37:37;4.90;;;2.03;;
46222;SDS011;31943;51.410;7.564;2022-08-24T10:40:13;5.47;;;1.80;;
46222;SDS011;31943;51.410;7.564;2022-08-24T10:43:03;5.00;;;2.13;;
46222;SDS011;31943;51.410;7.564;2022-08-24T10:46:13;3.78;;;1.67;;
46222;SDS011;31943;51.410;7.564;2022-08-24T10:49:17;4.72;;;2.20;;
46222;SDS011;31943;51.410;7.564;2022-08-24T10:52:14;2.05;;;1.52;;
46222;SDS011;31943;51.410;7.564;2022-08-24T10:55:12;5.72;;;1.88;;
46222;SDS011;31943;51.410;7.564;2022-08-24T10:57:41;4.38;;;1.75;;
46222;SDS011;31943;51.410;7.564;2022-08-24T11:00:16;5.63;;;1.95;;
46222;SDS011;31943;51.410;7.564;2022-08-24T11:02:45;3.70;;;1.98;;
46222;SDS011;31943;51.410;7.564;2022-08-24T11:05:13;7.72;;;2.10;;
46222;SDS011;31943;51.410;7.564;2022-08-24T11:07:53;3.22;;;1.80;;
46222;SDS011;31943;51.410;7.564;2022-08-24T11:10:23;2.90;;;1.65;;
46222;SDS011;31943;51.410;7.564;2022-08-24T11:12:52;5.10;;;1.60;;
46222;SDS011;31943;51.410;7.564;2022-08-24T11:15:19;4.78;;;1.83;;
46222;SDS011;31943;51.410;7.564;2022-08-24T11:17:53;2.17;;;1.63;;
46222;SDS011;31943;51.410;7.564;2022-08-24T11:20:24;3.65;;;1.80;;
46222;SDS011;31943;51.410;7.564;2022-08-24T11:22:56;3.40;;;1.67;;
46222;SDS011;31943;51.410;7.564;2022-08-24T11:25:26;2.92;;;1.98;;
46222;SDS011;31943;51.410;7.564;2022-08-24T11:27:56;4.10;;;2.00;;
46222;SDS011;31943;51.410;7.564;2022-08-24T11:30:28;6.60;;;1.73;;
46222;SDS011;31943;51.410;7.564;2022-08-24T11:32:56;4.70;;;1.80;;
46222;SDS011;31943;51.410;7.564;2022-08-24T11:35:25;4.23;;;1.73;;
46222;SDS011;31943;51.410;7.564;2022-08-24T11:37:52;2.92;;;1.40;;
46222;SDS011;31943;51.410;7.564;2022-08-24T11:40:21;2.83;;;1.60;;
46222;SDS011;31943;51.410;7.564;2022-08-24T11:43:02;4.63;;;1.75;;
46222;SDS011;31943;51.410;7.564;2022-08-24T11:45:36;5.72;;;1.48;;
46222;SDS011;31943;51.410;7.564;2022-08-24T11:48:15;7.03;;;1.80;;
46222;SDS011;31943;51.410;7.564;2022-08-24T11:50:52;5.30;;;1.80;;
46222;SDS011;31943;51.410;7.564;2022-08-24T11:53:24;3.08;;;1.60;;
46222;SDS011;31943;51.410;7.564;2022-08-24T11:56:01;4.53;;;1.60;;
46222;SDS011;31943;51.410;7.564;2022-08-24T11:58:42;3.55;;;1.60;;
46222;SDS011;31943;51.410;7.564;2022-08-24T12:01:16;3.50;;;1.70;;
46222;SDS011;31943;51.410;7.564;2022-08-24T12:06:55;4.28;;;1.90;;
46222;SDS011;31943;51.410;7.564;2022-08-24T12:09:30;3.20;;;1.98;;
46222;SDS011;31943;51.410;7.564;2022-08-24T12:12:08;3.03;;;1.77;;
46222;SDS011;31943;51.410;7.564;2022-08-24T12:14:41;2.80;;;1.55;;
46222;SDS011;31943;51.410;7.564;2022-08-24T12:17:13;3.20;;;1.73;;
46222;SDS011;31943;51.410;7.564;2022-08-24T12:19:44;2.58;;;1.60;;
46222;SDS011;31943;51.410;7.564;2022-08-24T12:22:13;2.80;;;1.70;;
46222;SDS011;31943;51.410;7.564;2022-08-24T12:24:43;3.33;;;2.00;;
46222;SDS011;31943;51.410;7.564;2022-08-24T12:27:12;5.72;;;1.88;;
46222;SDS011;31943;51.410;7.564;2022-08-24T12:29:43;3.33;;;1.80;;
46222;SDS011;31943;51.410;7.564;2022-08-24T12:32:13;2.40;;;1.67;;
46222;SDS011;31943;51.410;7.564;2022-08-24T12:34:45;4.93;;;1.77;;
46222;SDS011;31943;51.410;7.564;2022-08-24T12:37:20;5.45;;;2.00;;
46222;SDS011;31943;51.410;7.564;2022-08-24T12:39:54;4.97;;;1.70;;
46222;SDS011;31943;51.410;7.564;2022-08-24T12:42:27;5.00;;;2.10;;
46222;SDS011;31943;51.410;7.564;2022-08-24T12:45:02;6.05;;;1.70;;
46222;SDS011;31943;51.410;7.564;2022-08-24T12:47:32;4.95;;;1.83;;
46222;SDS011;31943;51.410;7.564;2022-08-24T12:50:03;3.75;;;2.03;;
46222;SDS011;31943;51.410;7.564;2022-08-24T12:52:42;4.22;;;1.80;;
46222;SDS011;31943;51.410;7.564;2022-08-24T12:55:25;2.53;;;1.50;;
46222;SDS011;31943;51.410;7.564;2022-08-24T13:01:19;4.32;;;1.70;;
46222;SDS011;31943;51.410;7.564;2022-08-24T13:03:48;5.13;;;1.98;;
46222;SDS011;31943;51.410;7.564;2022-08-24T13:06:35;6.18;;;1.75;;
46222;SDS011;31943;51.410;7.564;2022-08-24T13:09:07;4.15;;;1.85;;
46222;SDS011;31943;51.410;7.564;2022-08-24T13:11:39;5.40;;;2.15;;
46222;SDS011;31943;51.410;7.564;2022-08-24T13:14:11;11.00;;;2.20;;
46222;SDS011;31943;51.410;7.564;2022-08-24T13:16:43;9.48;;;2.35;;
46222;SDS011;31943;51.410;7.564;2022-08-24T13:19:12;3.55;;;1.75;;
46222;SDS011;31943;51.410;7.564;2022-08-24T13:33:27;5.38;;;2.22;;
46222;SDS011;31943;51.410;7.564;2022-08-24T13:36:04;3.70;;;1.67;;
46222;SDS011;31943;51.410;7.564;2022-08-24T13:41:51;3.92;;;1.83;;
46222;SDS011;31943;51.410;7.564;2022-08-24T13:44:32;3.47;;;1.77;;
46222;SDS011;31943;51.410;7.564;2022-08-24T13:47:17;4.30;;;1.70;;
46222;SDS011;31943;51.410;7.564;2022-08-24T13:49:52;2.60;;;1.83;;
46222;SDS011;31943;51.410;7.564;2022-08-24T13:52:25;6.00;;;1.60;;
46222;SDS011;31943;51.410;7.564;2022-08-24T13:55:05;4.07;;;2.13;;
46222;SDS011;31943;51.410;7.564;2022-08-24T13:57:40;4.03;;;1.73;;
46222;SDS011;31943;51.410;7.564;2022-08-24T14:05:55;7.07;;;2.03;;
46222;SDS011;31943;51.410;7.564;2022-08-24T14:08:32;4.78;;;1.92;;
46222;SDS011;31943;51.410;7.564;2022-08-24T14:11:07;2.40;;;1.63;;
46222;SDS011;31943;51.410;7.564;2022-08-24T14:13:40;4.38;;;1.80;;
46222;SDS011;31943;51.410;7.564;2022-08-24T14:16:21;3.42;;;1.70;;
46222;SDS011;31943;51.410;7.564;2022-08-24T14:18:58;6.03;;;1.90;;
46222;SDS011;31943;51.410;7.564;2022-08-24T14:21:36;3.72;;;1.95;;
46222;SDS011;31943;51.410;7.564;2022-08-24T14:24:10;4.80;;;1.90;;
46222;SDS011;31943;51.410;7.564;2022-08-24T14:29:34;3.20;;;1.40;;
46222;SDS011;31943;51.410;7.564;2022-08-24T14:37:52;2.10;;;1.45;;
46222;SDS011;31943;51.410;7.564;2022-08-24T14:40:27;3.15;;;2.03;;
46222;SDS011;31943;51.410;7.564;2022-08-24T14:42:57;3.70;;;1.52;;
46222;SDS011;31943;51.410;7.564;2022-08-24T14:45:34;2.90;;;1.95;;
46222;SDS011;31943;51.410;7.564;2022-08-24T14:48:11;5.03;;;1.70;;
46222;SDS011;31943;51.410;7.564;2022-08-24T14:50:47;4.32;;;1.85;;
46222;SDS011;31943;51.410;7.564;2022-08-24T14:53:25;4.40;;;1.60;;
46222;SDS011;31943;51.410;7.564;2022-08-24T14:56:08;4.17;;;1.70;;
46222;SDS011;31943;51.410;7.564;2022-08-24T14:58:45;4.07;;;1.90;;
46222;SDS011;31943;51.410;7.564;2022-08-24T15:01:34;3.25;;;1.90;;
46222;SDS011;31943;51.410;7.564;2022-08-24T15:04:20;3.33;;;1.88;;
46222;SDS011;31943;51.410;7.564;2022-08-24T15:06:55;8.27;;;2.17;;
46222;SDS011;31943;51.410;7.564;2022-08-24T15:09:26;4.80;;;1.73;;
46222;SDS011;31943;51.410;7.564;2022-08-24T15:11:55;3.33;;;2.00;;
46222;SDS011;31943;51.410;7.564;2022-08-24T15:14:32;3.65;;;1.52;;
46222;SDS011;31943;51.410;7.564;2022-08-24T15:17:05;4.90;;;1.58;;
46222;SDS011;31943;51.410;7.564;2022-08-24T15:19:35;2.75;;;1.90;;
46222;SDS011;31943;51.410;7.564;2022-08-24T15:22:13;5.47;;;1.95;;
46222;SDS011;31943;51.410;7.564;2022-08-24T15:24:49;3.90;;;2.00;;
46222;SDS011;31943;51.410;7.564;2022-08-24T15:27:21;4.45;;;1.85;;
46222;SDS011;31943;51.410;7.564;2022-08-24T15:29:53;4.93;;;1.88;;
46222;SDS011;31943;51.410;7.564;2022-08-24T15:32:22;4.45;;;2.22;;
46222;SDS011;31943;51.410;7.564;2022-08-24T15:34:50;3.30;;;1.40;;
46222;SDS011;31943;51.410;7.564;2022-08-24T15:37:24;4.40;;;1.67;;
46222;SDS011;31943;51.410;7.564;2022-08-24T15:39:53;5.65;;;1.75;;
46222;SDS011;31943;51.410;7.564;2022-08-24T15:42:19;4.60;;;1.80;;
46222;SDS011;31943;51.410;7.564;2022-08-24T15:44:46;3.05;;;1.50;;
46222;SDS011;31943;51.410;7.564;2022-08-24T15:47:16;3.17;;;1.80;;
46222;SDS011;31943;51.410;7.564;2022-08-24T15:49:48;2.75;;;1.80;;
46222;SDS011;31943;51.410;7.564;2022-08-24T15:52:36;3.63;;;1.65;;
46222;SDS011;31943;51.410;7.564;2022-08-24T15:55:14;4.35;;;1.63;;
46222;SDS011;31943;51.410;7.564;2022-08-24T15:57:51;4.95;;;1.92;;
46222;SDS011;31943;51.410;7.564;2022-08-24T16:00:18;2.38;;;1.73;;
46222;SDS011;31943;51.410;7.564;2022-08-24T16:02:46;3.35;;;1.77;;
46222;SDS011;31943;51.410;7.564;2022-08-24T16:05:17;2.25;;;1.50;;